createdAt,value
2018-10-11T00:01:51.681Z,21.03
2018-10-11T00:04:20.161Z,20.80
2018-10-11T00:06:48.843Z,22.13
2018-10-11T00:09:17.215Z,22.43
2018-10-11T00:11:45.724Z,21.10
2018-10-11T00:14:14.074Z,20.10
2018-10-11T00:16:42.611Z,20.57
2018-10-11T00:19:11.021Z,21.60
2018-10-11T00:21:39.859Z,21.93
2018-10-11T00:24:08.328Z,21.63
2018-10-11T00:26:36.750Z,20.73
2018-10-11T00:29:05.153Z,21.20
2018-10-11T00:31:33.641Z,21.97
2018-10-11T00:34:02.045Z,22.57
2018-10-11T00:36:30.455Z,22.13
2018-10-11T00:38:58.890Z,23.77
2018-10-11T00:41:27.344Z,24.30
2018-10-11T00:43:55.725Z,23.30
2018-10-11T00:46:24.125Z,24.00
2018-10-11T00:48:52.539Z,23.37
2018-10-11T00:51:21.538Z,22.53
2018-10-11T00:53:49.931Z,23.03
2018-10-11T00:56:18.384Z,22.60
2018-10-11T00:58:46.873Z,21.90
2018-10-11T01:01:15.249Z,23.00
2018-10-11T01:03:43.629Z,22.67
2018-10-11T01:06:12.172Z,22.63
2018-10-11T01:08:40.712Z,22.37
2018-10-11T01:11:09.561Z,22.43
2018-10-11T01:13:38.274Z,21.50
2018-10-11T01:16:06.673Z,23.77
2018-10-11T01:18:35.133Z,23.30
2018-10-11T01:21:03.516Z,23.07
2018-10-11T01:23:31.924Z,23.20
2018-10-11T01:26:00.372Z,22.40
2018-10-11T01:28:28.903Z,22.33
2018-10-11T01:31:02.780Z,23.00
2018-10-11T01:33:31.125Z,21.97
2018-10-11T01:35:59.595Z,22.42
2018-10-11T01:38:28.051Z,22.80
2018-10-11T01:40:56.480Z,22.37
2018-10-11T01:43:24.870Z,22.62
2018-10-11T01:45:53.333Z,22.73
2018-10-11T01:48:21.795Z,22.37
2018-10-11T01:50:50.144Z,21.07
2018-10-11T01:53:18.627Z,21.77
2018-10-11T01:55:47.012Z,20.83
2018-10-11T01:58:15.416Z,22.17
2018-10-11T02:00:44.134Z,20.85
2018-10-11T02:03:12.685Z,21.20
2018-10-11T02:05:41.067Z,22.07
2018-10-11T02:08:09.458Z,23.13
2018-10-11T02:10:37.849Z,20.50
2018-10-11T02:13:06.782Z,21.57
2018-10-11T02:15:35.188Z,21.30
2018-10-11T02:18:03.570Z,21.15
2018-10-11T02:20:31.956Z,22.63
2018-10-11T02:23:00.416Z,23.03
2018-10-11T02:25:28.844Z,22.70
2018-10-11T02:27:57.295Z,22.65
2018-10-11T02:30:25.729Z,21.53
2018-10-11T02:32:54.131Z,22.30
2018-10-11T02:35:22.548Z,23.50
2018-10-11T02:37:51.045Z,22.83
2018-10-11T02:40:19.461Z,22.80
2018-10-11T02:42:47.901Z,22.40
2018-10-11T02:45:16.340Z,23.18
2018-10-11T02:47:51.177Z,23.97
2018-10-11T02:50:19.616Z,22.97
2018-10-11T02:52:48.097Z,25.40
2018-10-11T02:55:21.537Z,24.23
2018-10-11T02:58:01.685Z,22.23
2018-10-11T03:00:33.422Z,24.03
2018-10-11T03:03:09.704Z,22.90
2018-10-11T03:05:40.537Z,23.20
2018-10-11T03:08:10.836Z,23.63
2018-10-11T03:10:39.904Z,23.00
2018-10-11T03:13:10.177Z,23.20
2018-10-11T03:15:38.729Z,24.60
2018-10-11T03:18:07.168Z,23.70
2018-10-11T03:20:35.574Z,24.57
2018-10-11T03:23:03.997Z,25.00
2018-10-11T03:25:32.451Z,24.97
2018-10-11T03:28:00.876Z,26.27
2018-10-11T03:30:30.116Z,23.30
2018-10-11T03:32:59.111Z,24.37
2018-10-11T03:35:28.177Z,23.73
2018-10-11T03:37:57.188Z,24.72
2018-10-11T03:40:26.132Z,26.77
2018-10-11T03:42:54.835Z,26.17
2018-10-11T03:45:23.257Z,26.30
2018-10-11T03:47:51.700Z,26.75
2018-10-11T03:50:20.138Z,26.77
2018-10-11T03:52:49.391Z,25.93
2018-10-11T03:55:17.837Z,28.00
2018-10-11T03:57:46.227Z,27.23
2018-10-11T04:00:14.696Z,25.25
2018-10-11T04:02:43.083Z,26.33
2018-10-11T04:05:11.625Z,24.57
2018-10-11T04:07:40.670Z,26.55
2018-10-11T04:10:09.766Z,26.77
2018-10-11T04:12:38.195Z,25.72
2018-10-11T04:15:06.715Z,26.27
2018-10-11T04:17:35.176Z,27.33
2018-10-11T04:20:03.741Z,24.20
2018-10-11T04:22:32.195Z,25.60
2018-10-11T04:25:00.590Z,25.80
2018-10-11T04:27:29.036Z,26.60
2018-10-11T04:30:00.294Z,25.00
2018-10-11T04:32:28.754Z,26.65
2018-10-11T04:34:57.282Z,26.30
2018-10-11T04:37:25.702Z,27.30
2018-10-11T04:39:55.164Z,26.23
2018-10-11T04:42:24.325Z,26.55
2018-10-11T04:44:53.292Z,26.10
2018-10-11T04:47:21.657Z,26.20
2018-10-11T04:49:50.593Z,25.60
2018-10-11T04:52:19.008Z,26.68
2018-10-11T04:54:49.252Z,25.35
2018-10-11T04:57:18.797Z,25.77
2018-10-11T04:59:47.397Z,25.80
2018-10-11T05:02:15.798Z,25.90
2018-10-11T05:04:44.181Z,24.67
2018-10-11T05:07:12.968Z,24.70
2018-10-11T05:09:41.476Z,27.45
2018-10-11T05:12:10.555Z,24.63
2018-10-11T05:14:39.432Z,24.10
2018-10-11T05:17:08.587Z,23.27
2018-10-11T05:19:38.761Z,24.80
2018-10-11T05:22:07.368Z,25.10
2018-10-11T05:24:37.364Z,25.92
2018-10-11T05:27:06.856Z,25.75
2018-10-11T05:29:35.327Z,26.48
2018-10-11T05:32:06.777Z,27.40
2018-10-11T05:34:35.129Z,26.63
2018-10-11T05:37:03.571Z,24.65
2018-10-11T05:39:32.198Z,24.92
2018-10-11T05:42:00.987Z,25.77
2018-10-11T05:44:29.805Z,27.90
2018-10-11T05:46:58.397Z,29.27
2018-10-11T05:49:27.397Z,26.50
2018-10-11T05:51:55.911Z,25.77
2018-10-11T05:54:24.370Z,26.15
2018-10-11T05:56:52.921Z,25.50
2018-10-11T05:59:21.380Z,25.30
2018-10-11T06:01:49.854Z,23.87
2018-10-11T06:04:24.520Z,27.10
2018-10-11T06:06:52.968Z,23.62
2018-10-11T06:09:21.584Z,25.32
2018-10-11T06:11:50.106Z,26.37
2018-10-11T06:14:18.602Z,26.03
2018-10-11T06:16:47.071Z,24.13
2018-10-11T06:19:15.975Z,25.37
2018-10-11T06:21:45.099Z,24.37
2018-10-11T06:24:13.564Z,24.70
2018-10-11T06:26:42.336Z,24.10
2018-10-11T06:29:11.081Z,27.47
2018-10-11T06:31:39.674Z,27.67
2018-10-11T06:34:08.189Z,28.75
2018-10-11T06:36:36.787Z,28.05
2018-10-11T06:39:07.652Z,29.60
2018-10-11T06:41:36.096Z,29.03
2018-10-11T06:44:05.065Z,29.23
2018-10-11T06:46:34.757Z,28.40
2018-10-11T06:49:03.289Z,27.75
2018-10-11T06:51:31.871Z,28.87
2018-10-11T06:54:00.819Z,28.87
2018-10-11T06:56:29.212Z,28.70
2018-10-11T06:58:57.668Z,29.87
2018-10-11T07:01:26.108Z,25.97
2018-10-11T07:03:54.564Z,24.63
2018-10-11T07:06:22.978Z,21.90
2018-10-11T07:08:51.468Z,21.10
2018-10-11T07:11:20.706Z,22.80
2018-10-11T07:13:49.213Z,21.50
2018-10-11T07:16:17.576Z,23.40
2018-10-11T07:18:45.957Z,22.83
2018-10-11T07:21:14.425Z,23.87
2018-10-11T07:23:42.790Z,23.40
2018-10-11T07:26:11.272Z,23.87
2018-10-11T07:28:39.661Z,24.23
2018-10-11T07:31:08.171Z,24.40
2018-10-11T07:33:36.616Z,24.60
2018-10-11T07:36:05.070Z,21.77
2018-10-11T07:38:33.466Z,23.23
2018-10-11T07:41:01.938Z,21.80
2018-10-11T07:43:30.238Z,23.18
2018-10-11T07:45:59.544Z,22.10
2018-10-11T07:48:27.991Z,25.90
2018-10-11T07:50:56.872Z,25.10
2018-10-11T07:53:25.291Z,24.67
2018-10-11T07:55:53.722Z,24.40
2018-10-11T07:58:22.128Z,23.43
2018-10-11T08:00:50.568Z,26.23
2018-10-11T08:03:19.012Z,24.80
2018-10-11T08:05:47.355Z,23.17
2018-10-11T08:08:15.757Z,24.93
2018-10-11T08:10:44.158Z,23.80
2018-10-11T08:13:12.573Z,24.67
2018-10-11T08:15:40.932Z,21.70
2018-10-11T08:18:09.336Z,23.23
2018-10-11T08:20:39.416Z,21.77
2018-10-11T08:23:07.678Z,21.90
2018-10-11T08:25:36.245Z,22.40
2018-10-11T08:28:04.443Z,23.00
2018-10-11T08:30:33.500Z,23.53
2018-10-11T08:33:01.968Z,22.43
2018-10-11T08:35:30.418Z,23.17
2018-10-11T08:37:59.083Z,22.40
2018-10-11T08:40:27.425Z,22.30
2018-10-11T08:42:55.814Z,22.40
2018-10-11T08:45:24.283Z,22.53
2018-10-11T08:47:52.695Z,23.67
2018-10-11T08:50:21.339Z,22.10
2018-10-11T08:52:49.716Z,21.40
2018-10-11T08:55:18.523Z,20.90
2018-10-11T08:57:46.927Z,21.57
2018-10-11T09:00:15.340Z,21.30
2018-10-11T09:02:43.792Z,20.90
2018-10-11T09:05:12.310Z,21.10
2018-10-11T09:07:40.763Z,20.60
2018-10-11T09:10:09.223Z,20.07
2018-10-11T09:12:37.708Z,20.23
2018-10-11T09:15:06.319Z,19.63
2018-10-11T09:17:34.708Z,18.77
2018-10-11T09:20:03.184Z,18.55
2018-10-11T09:22:31.636Z,19.05
2018-10-11T09:25:00.013Z,20.40
2018-10-11T09:27:29.173Z,18.30
2018-10-11T09:29:58.226Z,18.23
2018-10-11T09:32:26.642Z,18.00
2018-10-11T09:34:55.078Z,18.62
2018-10-11T09:37:23.548Z,17.77
2018-10-11T09:39:52.005Z,18.07
2018-10-11T09:42:20.415Z,17.33
2018-10-11T09:44:48.907Z,17.98
2018-10-11T09:47:17.467Z,19.07
2018-10-11T09:49:45.840Z,16.90
2018-10-11T09:52:14.519Z,17.47
2018-10-11T09:54:43.111Z,17.73
2018-10-11T09:57:16.837Z,17.73
2018-10-11T09:59:45.267Z,17.40
2018-10-11T10:02:14.094Z,17.60
2018-10-11T10:04:45.806Z,18.90
2018-10-11T10:07:14.300Z,18.90
2018-10-11T10:09:43.509Z,19.75
2018-10-11T10:12:12.519Z,19.60
2018-10-11T10:14:41.664Z,16.95
2018-10-11T10:17:10.430Z,19.67
2018-10-11T10:19:38.881Z,19.00
2018-10-11T10:22:07.396Z,19.53
2018-10-11T10:24:36.058Z,18.37
2018-10-11T10:27:04.483Z,19.63
2018-10-11T10:29:32.850Z,18.07
2018-10-11T10:32:01.965Z,18.13
2018-10-11T10:34:30.478Z,18.23
2018-10-11T10:36:58.933Z,17.87
2018-10-11T10:39:33.730Z,19.53
2018-10-11T10:42:02.181Z,18.97
2018-10-11T10:44:30.624Z,18.17
2018-10-11T10:46:59.092Z,18.80
2018-10-11T10:49:27.557Z,20.53
2018-10-11T10:51:56.018Z,18.60
2018-10-11T10:54:27.096Z,17.90
2018-10-11T10:56:55.816Z,19.13
2018-10-11T10:59:24.294Z,20.87
2018-10-11T11:01:52.864Z,18.50
2018-10-11T11:04:21.318Z,17.67
2018-10-11T11:06:49.788Z,18.50
2018-10-11T11:09:18.274Z,17.20
2018-10-11T11:11:53.950Z,18.17
2018-10-11T11:14:22.414Z,17.50
2018-10-11T11:16:50.826Z,17.50
2018-10-11T11:19:19.241Z,17.77
2018-10-11T11:21:47.623Z,16.80
2018-10-11T11:24:16.014Z,18.57
2018-10-11T11:26:44.430Z,16.73
2018-10-11T11:29:12.916Z,16.03
2018-10-11T11:31:42.615Z,17.03
2018-10-11T11:34:11.001Z,16.75
2018-10-11T11:36:39.388Z,15.08
2018-10-11T11:39:08.704Z,15.30
2018-10-11T11:41:37.283Z,15.40
2018-10-11T11:44:05.757Z,14.50
2018-10-11T11:46:34.829Z,14.83
2018-10-11T11:49:03.263Z,14.10
2018-10-11T11:51:31.719Z,13.83
2018-10-11T11:54:00.150Z,14.40
2018-10-11T11:56:28.530Z,15.70
2018-10-11T11:58:56.924Z,15.90
2018-10-11T12:01:25.337Z,15.50
2018-10-11T12:03:53.804Z,15.07
2018-10-11T12:06:22.292Z,13.80
2018-10-11T12:08:50.733Z,15.57
2018-10-11T12:11:19.134Z,13.57
2018-10-11T12:13:47.574Z,16.23
2018-10-11T12:16:15.980Z,16.30
2018-10-11T12:18:44.431Z,15.70
2018-10-11T12:21:12.845Z,14.47
2018-10-11T12:23:41.581Z,14.67
2018-10-11T12:26:10.075Z,15.37
2018-10-11T12:28:38.508Z,15.90
2018-10-11T12:31:07.078Z,14.65
2018-10-11T12:33:35.491Z,13.83
2018-10-11T12:36:04.840Z,13.20
2018-10-11T12:38:33.416Z,13.70
2018-10-11T12:41:02.689Z,13.70
2018-10-11T12:43:31.095Z,13.27
2018-10-11T12:45:59.528Z,14.03
2018-10-11T12:48:27.911Z,13.90
2018-10-11T12:50:56.302Z,13.53
2018-10-11T12:53:24.721Z,13.57
2018-10-11T12:55:53.187Z,15.40
2018-10-11T12:58:21.632Z,13.50
2018-10-11T13:00:50.015Z,13.13
2018-10-11T13:03:18.437Z,13.10
2018-10-11T13:05:46.772Z,13.47
2018-10-11T13:08:15.154Z,14.50
2018-10-11T13:10:43.597Z,13.10
2018-10-11T13:13:12.066Z,13.87
2018-10-11T13:15:40.508Z,13.30
2018-10-11T13:18:08.844Z,13.33
2018-10-11T13:20:37.351Z,13.60
2018-10-11T13:23:07.121Z,13.30
2018-10-11T13:25:33.917Z,11.80
2018-10-11T13:28:02.322Z,13.55
2018-10-11T13:30:30.716Z,12.40
2018-10-11T13:32:59.512Z,13.80
2018-10-11T13:35:27.895Z,13.40
2018-10-11T13:37:56.289Z,13.70
2018-10-11T13:40:24.709Z,13.28
2018-10-11T13:42:53.076Z,12.50
2018-10-11T13:45:21.587Z,12.33
2018-10-11T13:47:49.988Z,12.50
2018-10-11T13:50:18.393Z,13.60
2018-10-11T13:52:46.790Z,12.93
2018-10-11T13:55:15.799Z,12.78
2018-10-11T13:57:43.547Z,13.90
2018-10-11T14:00:11.984Z,14.00
2018-10-11T14:02:40.451Z,12.07
2018-10-11T14:05:08.956Z,13.37
2018-10-11T14:07:38.261Z,12.30
2018-10-11T14:10:06.845Z,14.40
2018-10-11T14:12:35.316Z,13.40
2018-10-11T14:15:03.897Z,13.20
2018-10-11T14:17:32.428Z,12.80
2018-10-11T14:20:00.805Z,12.20
2018-10-11T14:22:29.245Z,12.18
2018-10-11T14:24:57.653Z,13.20
2018-10-11T14:27:32.524Z,12.80
2018-10-11T14:30:00.958Z,14.80
2018-10-11T14:32:29.451Z,14.00
2018-10-11T14:34:57.877Z,12.43
2018-10-11T14:37:26.287Z,12.33
2018-10-11T14:39:54.721Z,11.90
2018-10-11T14:42:23.136Z,11.97
2018-10-11T14:44:51.496Z,12.60
2018-10-11T14:47:20.022Z,12.83
2018-10-11T14:49:48.432Z,12.47
2018-10-11T14:52:17.672Z,12.80
2018-10-11T14:54:46.133Z,12.47
2018-10-11T14:57:14.572Z,12.15
2018-10-11T14:59:42.910Z,12.87
2018-10-11T15:02:11.308Z,11.30
2018-10-11T15:04:39.704Z,12.40
2018-10-11T15:07:08.183Z,12.60
2018-10-11T15:09:36.585Z,12.67
2018-10-11T15:12:05.904Z,14.10
2018-10-11T15:14:34.315Z,12.00
2018-10-11T15:17:02.903Z,12.50
2018-10-11T15:19:31.336Z,12.30
2018-10-11T15:21:59.752Z,11.50
2018-10-11T15:24:28.179Z,12.90
2018-10-11T15:26:56.726Z,12.68
2018-10-11T15:29:25.267Z,11.90
2018-10-11T15:31:53.621Z,12.33
2018-10-11T15:34:22.008Z,12.40
2018-10-11T15:36:50.462Z,11.80
2018-10-11T15:39:18.897Z,11.57
2018-10-11T15:41:47.278Z,12.75
2018-10-11T15:44:15.678Z,12.27
2018-10-11T15:46:44.168Z,12.73
2018-10-11T15:49:12.554Z,12.18
2018-10-11T15:51:41.145Z,11.57
2018-10-11T15:54:09.591Z,12.90
2018-10-11T15:56:37.975Z,12.20
2018-10-11T15:59:06.452Z,11.93
2018-10-11T16:01:36.113Z,12.30
2018-10-11T16:04:05.149Z,12.77
2018-10-11T16:06:33.834Z,12.37
2018-10-11T16:09:02.399Z,12.20
2018-10-11T16:11:30.688Z,11.73
2018-10-11T16:13:59.093Z,12.37
2018-10-11T16:16:27.504Z,13.13
2018-10-11T16:18:55.945Z,12.30
2018-10-11T16:21:24.456Z,13.00
2018-10-11T16:23:52.985Z,14.07
2018-10-11T16:26:21.472Z,13.00
2018-10-11T16:28:49.897Z,13.83
2018-10-11T16:31:18.669Z,12.27
2018-10-11T16:33:47.379Z,12.63
2018-10-11T16:36:15.803Z,12.20
2018-10-11T16:38:44.264Z,12.33
2018-10-11T16:41:13.589Z,13.63
2018-10-11T16:43:42.965Z,13.50
2018-10-11T16:46:11.651Z,12.03
2018-10-11T16:48:40.624Z,12.13
2018-10-11T16:51:09.053Z,13.03
2018-10-11T16:53:37.712Z,12.68
2018-10-11T16:56:06.235Z,13.07
2018-10-11T16:58:34.569Z,13.50
2018-10-11T17:01:03.357Z,12.53
2018-10-11T17:03:32.752Z,13.33
2018-10-11T17:06:01.241Z,12.60
2018-10-11T17:08:29.616Z,12.53
2018-10-11T17:10:58.036Z,13.67
2018-10-11T17:13:26.429Z,13.23
2018-10-11T17:15:54.841Z,13.90
2018-10-11T17:18:23.679Z,12.70
2018-10-11T17:20:52.367Z,13.20
2018-10-11T17:23:20.760Z,12.97
2018-10-11T17:25:49.181Z,13.20
2018-10-11T17:28:17.617Z,13.03
2018-10-11T17:30:46.096Z,13.70
2018-10-11T17:33:14.509Z,14.00
2018-10-11T17:35:42.954Z,13.03
2018-10-11T17:38:11.792Z,13.90
2018-10-11T17:40:41.140Z,13.23
2018-10-11T17:43:09.544Z,13.80
2018-10-11T17:45:37.947Z,14.07
2018-10-11T17:48:06.807Z,13.60
2018-10-11T17:50:35.243Z,12.93
2018-10-11T17:53:03.716Z,13.90
2018-10-11T17:55:32.137Z,13.67
2018-10-11T17:58:00.582Z,13.20
2018-10-11T18:00:29.201Z,14.00
2018-10-11T18:02:57.618Z,13.15
2018-10-11T18:05:26.082Z,14.67
2018-10-11T18:07:54.497Z,16.00
2018-10-11T18:10:23.003Z,13.83
2018-10-11T18:17:55.049Z,14.83
2018-10-11T18:20:23.467Z,14.40
2018-10-11T18:22:52.734Z,13.97
2018-10-11T18:25:21.764Z,15.03
2018-10-11T18:27:50.176Z,15.37
2018-10-11T18:30:18.598Z,14.83
2018-10-11T18:32:47.792Z,15.70
2018-10-11T18:35:16.202Z,14.13
2018-10-11T18:37:44.620Z,16.00
2018-10-11T18:40:13.117Z,19.63
2018-10-11T18:42:41.841Z,26.10
2018-10-11T18:45:10.320Z,23.90
2018-10-11T18:47:38.729Z,17.50
2018-10-11T18:50:07.222Z,16.30
2018-10-11T18:52:35.653Z,17.33
2018-10-11T18:55:04.156Z,16.60
2018-10-11T18:57:32.616Z,17.12
2018-10-11T19:00:02.120Z,18.30
2018-10-11T19:02:30.636Z,17.30
2018-10-11T19:04:59.067Z,17.90
2018-10-11T19:07:27.491Z,17.73
2018-10-11T19:09:55.933Z,17.60
2018-10-11T19:12:24.567Z,17.12
2018-10-11T19:14:53.173Z,16.20
2018-10-11T19:17:21.598Z,17.80
2018-10-11T19:19:50.005Z,17.30
2018-10-11T19:22:18.396Z,18.25
2018-10-11T19:24:46.873Z,17.97
2018-10-11T19:27:15.377Z,17.90
2018-10-11T19:29:43.933Z,18.67
2018-10-11T19:32:12.403Z,18.67
2018-10-11T19:34:40.816Z,18.50
2018-10-11T19:37:10.255Z,17.27
2018-10-11T19:39:38.661Z,18.43
2018-10-11T19:42:07.088Z,18.67
2018-10-11T19:44:42.157Z,18.27
2018-10-11T19:47:11.180Z,17.47
2018-10-11T19:49:39.625Z,18.23
2018-10-11T19:52:08.058Z,18.90
2018-10-11T19:54:36.635Z,20.30
2018-10-11T19:57:05.566Z,19.87
2018-10-11T19:59:34.169Z,19.62
2018-10-11T20:02:02.789Z,21.15
2018-10-11T20:04:31.186Z,19.50
2018-10-11T20:06:59.683Z,18.47
2018-10-11T20:09:28.154Z,18.90
2018-10-11T20:11:56.652Z,19.73
2018-10-11T20:14:26.127Z,19.90
2018-10-11T20:16:56.487Z,19.60
2018-10-11T20:19:25.062Z,20.83
2018-10-11T20:21:53.596Z,19.85
2018-10-11T20:24:22.046Z,19.37
2018-10-11T20:26:50.481Z,20.10
2018-10-11T20:29:19.125Z,19.90
2018-10-11T20:31:47.522Z,19.40
2018-10-11T20:34:15.936Z,21.70
2018-10-11T20:36:44.493Z,20.83
2018-10-11T20:39:13.064Z,19.30
2018-10-11T20:41:41.535Z,19.70
2018-10-11T20:44:10.044Z,19.40
2018-10-11T20:46:38.701Z,18.65
2018-10-11T20:49:07.461Z,18.50
2018-10-11T20:51:35.928Z,20.67
2018-10-11T20:54:04.538Z,19.40
2018-10-11T20:56:33.235Z,18.73
2018-10-11T20:59:01.719Z,19.75
2018-10-11T21:01:30.176Z,18.73
2018-10-11T21:03:59.534Z,17.77
2018-10-11T21:06:28.368Z,17.77
2018-10-11T21:08:56.853Z,17.20
2018-10-11T21:11:25.350Z,16.83
2018-10-11T21:13:53.814Z,17.80
2018-10-11T21:16:22.367Z,17.00
2018-10-11T21:18:50.832Z,16.77
2018-10-11T21:21:19.305Z,18.17
2018-10-11T21:23:48.606Z,18.20
2018-10-11T21:26:17.125Z,17.27
2018-10-11T21:28:45.643Z,17.15
2018-10-11T21:31:14.275Z,17.30
2018-10-11T21:33:43.457Z,16.30
2018-10-11T21:36:11.904Z,16.87
2018-10-11T21:38:40.812Z,16.77
2018-10-11T21:41:09.425Z,16.20
2018-10-11T21:43:37.910Z,16.17
2018-10-11T21:46:25.283Z,15.28
2018-10-11T21:48:54.726Z,16.20
2018-10-11T21:51:23.386Z,15.60
2018-10-11T21:53:52.230Z,14.97
2018-10-11T21:56:20.688Z,15.47
2018-10-11T21:58:49.308Z,14.70
2018-10-11T22:01:22.488Z,15.63
2018-10-11T22:03:51.837Z,15.20
2018-10-11T22:06:20.204Z,15.17
2018-10-11T22:08:48.666Z,15.23
2018-10-11T22:11:17.856Z,15.10
2018-10-11T22:13:49.487Z,15.57
2018-10-11T22:16:18.319Z,15.93
2018-10-11T22:18:47.075Z,15.20
2018-10-11T22:21:15.873Z,14.95
2018-10-11T22:23:44.387Z,16.93
2018-10-11T22:26:13.616Z,15.50
2018-10-11T22:28:42.101Z,17.40
2018-10-11T22:31:13.164Z,15.18
2018-10-11T22:33:42.440Z,15.43
2018-10-11T22:36:12.452Z,16.20
2018-10-11T22:38:41.440Z,15.57
2018-10-11T22:41:10.876Z,17.33
2018-10-11T22:43:39.411Z,17.00
2018-10-11T22:46:07.880Z,15.10
2018-10-11T22:48:36.520Z,17.80
2018-10-11T22:51:06.135Z,17.48
2018-10-11T22:53:34.599Z,16.63
2018-10-11T22:56:03.066Z,17.77
2018-10-11T22:58:31.985Z,16.67
2018-10-11T23:01:00.443Z,17.17
2018-10-11T23:03:29.017Z,17.50
2018-10-11T23:05:57.503Z,18.57
2018-10-11T23:08:25.908Z,18.20
2018-10-11T23:10:54.295Z,17.67
2018-10-11T23:13:22.780Z,17.00
2018-10-11T23:15:51.237Z,16.70
2018-10-11T23:18:19.722Z,18.23
2018-10-11T23:20:48.199Z,18.47
2018-10-11T23:23:16.684Z,17.17
2018-10-11T23:25:45.230Z,17.17
2018-10-11T23:28:13.697Z,17.37
2018-10-11T23:30:42.112Z,18.65
2018-10-11T23:33:10.562Z,18.87
2018-10-11T23:35:38.998Z,17.87
2018-10-11T23:38:07.421Z,18.80
2018-10-11T23:40:35.822Z,17.97
2018-10-11T23:43:04.220Z,19.30
2018-10-11T23:45:32.740Z,17.93
2018-10-11T23:48:01.260Z,19.50
2018-10-11T23:50:36.296Z,19.40
2018-10-11T23:53:04.793Z,19.10
2018-10-11T23:55:36.099Z,20.27
2018-10-11T23:58:04.598Z,19.70
